createdAt,value
2018-05-31T00:01:27.106Z,23
2018-05-31T00:11:27.342Z,23
2018-05-31T00:21:26.725Z,23
2018-05-31T00:31:27.502Z,22
2018-05-31T00:41:29.429Z,22
2018-05-31T00:51:26.854Z,22
2018-05-31T01:01:27.410Z,22
2018-05-31T01:11:26.566Z,22
2018-05-31T01:21:28.230Z,22
2018-05-31T01:31:27.401Z,22
2018-05-31T01:41:32.384Z,22
2018-05-31T01:51:26.181Z,22
2018-05-31T02:01:28.523Z,22
2018-05-31T02:11:27.355Z,22
2018-05-31T02:21:29.052Z,22
2018-05-31T02:31:29.247Z,22
2018-05-31T02:41:28.072Z,21
2018-05-31T02:51:28.664Z,22
2018-05-31T03:01:29.058Z,22
2018-05-31T03:11:28.256Z,21
2018-05-31T03:21:27.450Z,21
2018-05-31T03:31:26.432Z,22
2018-05-31T03:41:28.416Z,21
2018-05-31T03:51:26.934Z,22
2018-05-31T04:01:29.844Z,22
2018-05-31T04:11:27.683Z,21
2018-05-31T04:21:28.708Z,21
2018-05-31T04:31:26.653Z,22
2018-05-31T04:41:27.728Z,22
2018-05-31T04:51:28.013Z,21
2018-05-31T05:01:26.954Z,21
2018-05-31T05:11:28.436Z,22
2018-05-31T05:21:26.474Z,22
2018-05-31T05:31:27.429Z,22
2018-05-31T05:41:26.535Z,22
2018-05-31T05:51:26.975Z,22
2018-05-31T06:01:26.886Z,22
2018-05-31T06:11:26.851Z,23
2018-05-31T06:21:32.375Z,23
2018-05-31T06:31:26.301Z,23
2018-05-31T06:41:26.518Z,23
2018-05-31T06:51:28.159Z,23
2018-05-31T07:01:27.034Z,24
2018-05-31T07:11:27.206Z,24
2018-05-31T07:21:26.647Z,24
2018-05-31T07:31:27.392Z,24
2018-05-31T07:41:26.831Z,25
2018-05-31T07:51:26.716Z,25
2018-05-31T08:01:26.673Z,25
2018-05-31T08:11:26.618Z,25
2018-05-31T08:21:28.534Z,25
2018-05-31T08:31:26.621Z,25
2018-05-31T08:41:30.478Z,26
2018-05-31T08:51:26.359Z,26
2018-05-31T09:01:26.225Z,26
2018-05-31T09:11:27.511Z,26
2018-05-31T09:21:26.579Z,26
2018-05-31T09:31:26.396Z,27
2018-05-31T09:41:27.006Z,26
2018-05-31T09:51:26.925Z,26
2018-05-31T10:01:27.699Z,27
2018-05-31T10:11:26.618Z,27
2018-05-31T10:21:27.387Z,27
2018-05-31T10:31:27.099Z,28
2018-05-31T10:41:28.555Z,28
2018-05-31T10:51:26.971Z,28
2018-05-31T11:01:28.457Z,28
2018-05-31T11:11:26.280Z,28
2018-05-31T11:21:26.803Z,28
2018-05-31T11:31:27.012Z,28
2018-05-31T11:41:27.695Z,28
2018-05-31T11:51:26.752Z,29
2018-05-31T12:01:26.958Z,29
2018-05-31T12:11:27.437Z,29
2018-05-31T12:21:30.024Z,29
2018-05-31T12:31:29.303Z,29
2018-05-31T12:41:26.511Z,28
2018-05-31T12:51:26.532Z,29
2018-05-31T13:01:26.553Z,29
2018-05-31T13:11:26.476Z,29
2018-05-31T13:21:29.162Z,29
2018-05-31T13:31:27.087Z,29
2018-05-31T13:41:26.975Z,29
2018-05-31T13:51:29.673Z,29
2018-05-31T14:01:26.782Z,28
2018-05-31T14:11:27.210Z,28
2018-05-31T14:21:26.929Z,28
2018-05-31T14:31:27.116Z,28
2018-05-31T14:41:27.715Z,28
2018-05-31T14:51:28.764Z,28
2018-05-31T15:01:26.656Z,28
2018-05-31T15:11:26.643Z,29
2018-05-31T15:21:27.751Z,29
2018-05-31T15:31:26.691Z,29
2018-05-31T15:41:28.051Z,29
2018-05-31T15:51:27.031Z,29
2018-05-31T16:01:26.932Z,28
2018-05-31T16:11:27.986Z,28
2018-05-31T16:21:27.123Z,28
2018-05-31T16:31:27.328Z,30
2018-05-31T16:41:27.377Z,30
2018-05-31T16:51:26.843Z,29
2018-05-31T17:01:27.054Z,29
2018-05-31T17:11:27.632Z,29
2018-05-31T17:21:26.835Z,29
2018-05-31T17:31:26.772Z,29
2018-05-31T17:41:28.544Z,29
2018-05-31T17:51:26.873Z,29
2018-05-31T18:01:26.678Z,29
2018-05-31T18:11:26.657Z,28
2018-05-31T18:21:26.806Z,28
2018-05-31T18:31:27.510Z,27
2018-05-31T18:41:27.876Z,26
2018-05-31T18:51:27.049Z,27
2018-05-31T19:01:27.218Z,26
2018-05-31T19:11:27.238Z,26
2018-05-31T19:21:26.297Z,26
2018-05-31T19:31:27.516Z,25
2018-05-31T19:41:26.397Z,26
2018-05-31T19:51:26.818Z,25
2018-05-31T20:01:26.613Z,25
2018-05-31T20:11:27.384Z,25
2018-05-31T20:21:27.554Z,25
2018-05-31T20:31:26.982Z,25
2018-05-31T20:41:26.766Z,25
2018-05-31T20:51:26.695Z,25
2018-05-31T21:01:26.599Z,24
2018-05-31T21:11:26.826Z,24
2018-05-31T21:21:27.100Z,24
2018-05-31T21:31:27.218Z,24
2018-05-31T21:41:27.627Z,23
2018-05-31T21:51:26.427Z,24
2018-05-31T22:01:26.250Z,23
2018-05-31T22:11:27.984Z,24
2018-05-31T22:21:27.514Z,23
2018-05-31T22:31:26.326Z,23
2018-05-31T22:41:27.037Z,23
2018-05-31T22:51:26.802Z,23
2018-05-31T23:01:26.576Z,23
2018-05-31T23:11:28.768Z,23
2018-05-31T23:21:26.826Z,22
2018-05-31T23:31:27.864Z,22
2018-05-31T23:41:26.628Z,22
2018-05-31T23:51:27.259Z,22
